Time;durP1;ratioP1;P1;durP2;ratioP2;P2;SDS_P1;SDS_P2;PMS_P1;PMS_P2;Temp;Humidity;BMP_temperature;BMP_pressure;BME280_temperature;BME280_humidity;BME280_pressure;Samples;Min_cycle;Max_cycle;Signal;HPM_P1;HPM_P2
2023/12/23 00:02:46;;;;;;;1999.90;999.90;;;;;;;7.43;100.00;100823.78;10440164;28;20507;-65
2023/12/23 00:07:49;;;;;;;1999.90;999.90;;;;;;;7.36;100.00;100831.06;10457819;28;20049;-65
2023/12/23 00:12:51;;;;;;;1999.90;999.90;;;;;;;7.31;100.00;100827.78;10457697;28;20045;-65
2023/12/23 00:17:54;;;;;;;1999.90;999.90;;;;;;;7.39;100.00;100837.88;10456260;28;20099;-65
2023/12/23 00:22:58;;;;;;;1999.90;999.90;;;;;;;7.38;100.00;100849.19;10456031;28;20060;-65
2023/12/23 00:28:00;;;;;;;1999.90;999.90;;;;;;;7.36;100.00;100838.88;10457084;28;20076;-65
2023/12/23 00:33:05;;;;;;;1999.90;999.90;;;;;;;7.29;100.00;100841.78;10457154;28;20053;-65
2023/12/23 00:38:07;;;;;;;1999.90;999.90;;;;;;;7.48;100.00;100834.88;10456916;28;20142;-66
2023/12/23 00:43:10;;;;;;;1999.90;999.90;;;;;;;7.47;100.00;100832.34;10456850;28;20049;-65
2023/12/23 00:48:13;;;;;;;1999.90;999.90;;;;;;;7.39;100.00;100809.22;10455506;28;20404;-65
2023/12/23 00:53:15;;;;;;;1999.90;999.90;;;;;;;7.41;100.00;100810.00;10455221;28;20476;-65
2023/12/23 00:58:18;;;;;;;1999.90;999.90;;;;;;;7.44;100.00;100804.66;10455140;28;20484;-65
2023/12/23 01:03:20;;;;;;;1999.90;999.90;;;;;;;7.31;100.00;100814.75;10456267;28;20045;-65
2023/12/23 01:08:25;;;;;;;1999.90;999.90;;;;;;;7.46;100.00;100810.63;10456034;28;20056;-65
2023/12/23 01:13:28;;;;;;;1999.90;999.90;;;;;;;7.48;100.00;100823.59;10455015;28;20063;-65
2023/12/23 01:18:31;;;;;;;1999.90;999.90;;;;;;;7.36;100.00;100811.97;10456514;28;20045;-65
2023/12/23 01:23:33;;;;;;;1999.90;999.90;;;;;;;7.48;100.00;100808.84;10455960;28;20092;-65
2023/12/23 01:28:35;;;;;;;1999.90;999.90;;;;;;;7.47;100.00;100804.53;10455710;28;20373;-65
2023/12/23 01:33:38;;;;;;;1999.90;999.90;;;;;;;7.66;100.00;100799.31;10455891;28;20057;-65
2023/12/23 01:38:40;;;;;;;1999.90;999.90;;;;;;;7.57;100.00;100799.75;10455516;28;20476;-65
2023/12/23 01:43:43;;;;;;;1999.90;999.90;;;;;;;7.46;100.00;100792.41;10455840;28;20057;-65
2023/12/23 01:48:45;;;;;;;1999.90;999.90;;;;;;;7.49;100.00;100771.44;10455424;28;20051;-65
2023/12/23 01:53:48;;;;;;;1999.90;999.90;;;;;;;7.37;100.00;100772.00;10455315;28;20119;-65
2023/12/23 01:58:51;;;;;;;1999.90;999.90;;;;;;;7.52;100.00;100757.44;10455980;28;20395;-65
2023/12/23 02:03:53;;;;;;;1999.90;999.90;;;;;;;7.61;100.00;100770.03;10463263;28;20076;-65
2023/12/23 02:08:55;;;;;;;1999.90;999.90;;;;;;;7.53;100.00;100772.13;10462421;28;20506;-65
2023/12/23 02:14:26;;;;;;;1999.90;999.90;;;;;;;7.73;100.00;100766.88;10462301;28;20132;-64
2023/12/23 02:19:29;;;;;;;1999.90;999.90;;;;;;;7.68;100.00;100750.59;10461233;28;20083;-65
2023/12/23 02:24:31;;;;;;;1999.90;999.90;;;;;;;7.54;100.00;100737.38;10461741;28;20049;-65
2023/12/23 02:29:34;;;;;;;1999.90;999.90;;;;;;;7.71;100.00;100731.38;10461503;28;20045;-65
2023/12/23 02:34:37;;;;;;;1999.90;999.90;;;;;;;7.41;100.00;100730.13;10461441;28;20107;-65
2023/12/23 02:39:39;;;;;;;1999.90;999.90;;;;;;;7.54;100.00;100713.91;10460631;28;20448;-65
2023/12/23 02:44:41;;;;;;;1999.90;999.90;;;;;;;7.55;100.00;100713.84;10461281;28;20053;-65
2023/12/23 02:49:44;;;;;;;1999.90;999.90;;;;;;;7.55;100.00;100694.78;10460818;28;20136;-65
2023/12/23 02:54:46;;;;;;;1999.90;999.90;;;;;;;7.68;100.00;100692.41;10460680;28;20045;-64
2023/12/23 02:59:49;;;;;;;1999.90;999.90;;;;;;;7.80;100.00;100684.00;10459676;28;20056;-64
2023/12/23 03:04:51;;;;;;;1999.90;999.90;;;;;;;7.93;100.00;100679.91;10460246;28;20070;-64
2023/12/23 03:09:53;;;;;;;1999.90;999.90;;;;;;;7.90;100.00;100677.47;10459933;28;20049;-65
2023/12/23 03:14:56;;;;;;;1999.90;999.90;;;;;;;8.14;100.00;100657.16;10459425;28;20053;-65
2023/12/23 03:19:58;;;;;;;1999.90;999.90;;;;;;;8.31;100.00;100658.09;10459958;28;20114;-65
2023/12/23 03:25:01;;;;;;;1999.90;999.90;;;;;;;8.32;100.00;100652.81;10459675;28;20507;-65
2023/12/23 03:30:03;;;;;;;1999.90;999.90;;;;;;;8.44;100.00;100643.53;10458350;28;20056;-65
2023/12/23 03:35:06;;;;;;;1999.90;999.90;;;;;;;8.34;100.00;100656.16;10458153;28;20115;-65
2023/12/23 03:40:09;;;;;;;1999.90;999.90;;;;;;;8.49;100.00;100636.31;10458943;28;20084;-66
2023/12/23 03:45:11;;;;;;;1999.90;999.90;;;;;;;8.63;100.00;100629.56;10458653;28;20075;-65
2023/12/23 03:50:13;;;;;;;1999.90;999.90;;;;;;;8.58;100.00;100613.28;10459111;28;20112;-66
2023/12/23 03:55:16;;;;;;;1999.90;999.90;;;;;;;8.58;100.00;100598.47;10458299;28;20127;-66
2023/12/23 04:00:18;;;;;;;1999.90;999.90;;;;;;;8.60;100.00;100599.22;10458328;28;20049;-65
2023/12/23 04:05:21;;;;;;;1999.90;999.90;;;;;;;8.72;100.00;100579.47;10457929;28;20048;-65
2023/12/23 04:10:23;;;;;;;1999.90;999.90;;;;;;;8.67;100.00;100568.44;10456924;28;20438;-65
2023/12/23 04:15:26;;;;;;;1999.90;999.90;;;;;;;8.70;100.00;100565.66;10457765;28;20144;-66
2023/12/23 04:20:28;;;;;;;1999.90;999.90;;;;;;;8.77;100.00;100574.84;10458037;28;20124;-65
2023/12/23 04:25:30;;;;;;;1999.90;999.90;;;;;;;8.72;100.00;100554.22;10457338;28;20095;-65
2023/12/23 04:30:34;;;;;;;1999.90;999.90;;;;;;;8.79;100.00;100551.28;10455900;28;20404;-65
2023/12/23 04:35:36;;;;;;;1999.90;999.90;;;;;;;8.83;100.00;100529.31;10455694;28;20089;-65
2023/12/23 04:40:39;;;;;;;1999.90;999.90;;;;;;;8.90;100.00;100544.53;10456780;28;20559;-66
2023/12/23 04:45:41;;;;;;;1999.90;999.90;;;;;;;8.89;100.00;100534.19;10455468;28;20049;-65
2023/12/23 04:50:43;;;;;;;1999.90;999.90;;;;;;;8.87;100.00;100543.88;10456445;28;20419;-66
2023/12/23 04:55:46;;;;;;;1999.90;999.90;;;;;;;8.85;100.00;100543.13;10456612;28;20128;-67
2023/12/23 05:00:48;;;;;;;1999.90;999.90;;;;;;;8.95;100.00;100528.63;10456387;28;20082;-66
2023/12/23 05:05:50;;;;;;;1999.90;999.90;;;;;;;8.82;100.00;100527.63;10456280;28;20049;-65
2023/12/23 05:10:53;;;;;;;1999.90;999.90;;;;;;;9.00;100.00;100510.94;10456375;28;20103;-66
2023/12/23 05:15:56;;;;;;;1999.90;999.90;;;;;;;9.01;100.00;100499.56;10454889;28;20049;-65
2023/12/23 05:20:58;;;;;;;1999.90;999.90;;;;;;;8.79;100.00;100501.66;10455986;28;20052;-65
2023/12/23 05:26:01;;;;;;;1999.90;999.90;;;;;;;8.87;100.00;100510.75;10454467;28;20384;-66
2023/12/23 05:31:03;;;;;;;1999.90;999.90;;;;;;;8.94;100.00;100506.03;10455987;28;20099;-65
2023/12/23 05:36:06;;;;;;;1999.90;999.90;;;;;;;8.97;100.00;100507.66;10460145;28;20052;-66
2023/12/23 05:41:09;;;;;;;1999.90;999.90;;;;;;;9.01;100.00;100490.88;10463508;28;20075;-65
2023/12/23 05:46:11;;;;;;;1999.90;999.90;;;;;;;8.93;100.00;100492.16;10464104;28;20052;-66
2023/12/23 05:51:14;;;;;;;1999.90;999.90;;;;;;;9.08;100.00;100500.91;10463134;28;20478;-65
2023/12/23 05:56:16;;;;;;;1999.90;999.90;;;;;;;8.98;100.00;100501.50;10463220;28;20049;-66
2023/12/23 06:01:18;;;;;;;1999.90;999.90;;;;;;;9.04;100.00;100496.78;10461655;28;20455;-66
2023/12/23 06:06:21;;;;;;;1999.90;999.90;;;;;;;8.78;100.00;100506.06;10462547;28;20049;-65
2023/12/23 06:11:23;;;;;;;1999.90;999.90;;;;;;;8.85;100.00;100507.41;10461184;28;20499;-65
2023/12/23 06:16:26;;;;;;;1999.90;999.90;;;;;;;8.77;100.00;100504.38;10461208;28;20049;-66
2023/12/23 06:21:28;;;;;;;1999.90;999.90;;;;;;;8.72;100.00;100502.03;10462198;28;20048;-66
2023/12/23 06:26:30;;;;;;;1999.90;999.90;;;;;;;8.74;100.00;100501.91;10460479;28;20048;-65
2023/12/23 06:31:33;;;;;;;1999.90;999.90;;;;;;;8.71;100.00;100518.59;10462112;28;20128;-66
2023/12/23 06:36:36;;;;;;;1999.90;999.90;;;;;;;8.66;100.00;100499.75;10461868;28;20400;-65
2023/12/23 06:41:38;;;;;;;1999.90;999.90;;;;;;;8.67;100.00;100496.19;10461407;28;20059;-65
2023/12/23 06:46:40;;;;;;;1999.90;999.90;;;;;;;8.82;100.00;100504.94;10459724;28;20488;-66
2023/12/23 06:51:43;;;;;;;1999.90;999.90;;;;;;;8.68;100.00;100500.50;10460865;28;20048;-65
2023/12/23 06:56:45;;;;;;;1999.90;999.90;;;;;;;8.70;100.00;100496.03;10460663;28;20122;-66
2023/12/23 07:01:47;;;;;;;1999.90;999.90;;;;;;;8.72;100.00;100495.94;10459570;28;20128;-64
2023/12/23 07:06:50;;;;;;;1999.90;999.90;;;;;;;8.72;100.00;100495.94;10459165;28;20056;-66
2023/12/23 07:11:52;;;;;;;1999.90;999.90;;;;;;;8.74;100.00;100492.34;10459096;28;20059;-66
2023/12/23 07:16:54;;;;;;;1999.90;999.90;;;;;;;8.64;100.00;100485.06;10459884;28;20055;-66
2023/12/23 07:21:57;;;;;;;1999.90;999.90;;;;;;;8.68;100.00;100495.28;10459679;28;20103;-65
2023/12/23 07:27:02;;;;;;;1999.90;999.90;;;;;;;8.73;100.00;100518.53;10460034;28;20087;-65
2023/12/23 07:32:05;;;;;;;1999.90;999.90;;;;;;;8.87;100.00;100502.94;10459526;28;20048;-65
2023/12/23 07:37:11;;;;;;;1999.90;999.90;;;;;;;8.93;100.00;100507.00;10458272;28;20053;-65
2023/12/23 07:42:13;;;;;;;1999.90;999.90;;;;;;;8.78;100.00;100528.72;10458903;28;20045;-65
2023/12/23 07:47:16;;;;;;;1999.90;999.90;;;;;;;8.91;100.00;100517.50;10459076;28;20080;-65
2023/12/23 07:52:19;;;;;;;1999.90;999.90;;;;;;;8.98;100.00;100520.63;10457301;28;20498;-65
2023/12/23 07:57:21;;;;;;;1999.90;999.90;;;;;;;9.19;100.00;100515.97;10458112;28;20055;-66
2023/12/23 08:02:24;;;;;;;1999.90;999.90;;;;;;;9.15;100.00;100519.69;10458180;28;20048;-66
2023/12/23 08:07:26;;;;;;;1999.90;999.90;;;;;;;9.14;100.00;100532.84;10458482;28;20053;-66
2023/12/23 08:12:29;;;;;;;1999.90;999.90;;;;;;;9.27;100.00;100526.00;10457607;28;20045;-66
2023/12/23 08:17:31;;;;;;;1999.90;999.90;;;;;;;9.33;100.00;100514.34;10457568;28;20049;-66
2023/12/23 08:22:34;;;;;;;1999.90;999.90;;;;;;;9.36;100.00;100516.78;10457668;28;20053;-66
2023/12/23 08:27:38;;;;;;;1999.90;999.90;;;;;;;9.45;100.00;100532.81;10456029;28;20131;-65
2023/12/23 08:32:40;;;;;;;1999.90;999.90;;;;;;;9.42;100.00;100530.34;10457248;28;20106;-66
2023/12/23 08:37:43;;;;;;;1999.90;999.90;;;;;;;9.59;100.00;100537.22;10456974;28;20056;-65
2023/12/23 08:42:45;;;;;;;1999.90;999.90;;;;;;;9.51;100.00;100549.06;10455621;28;20072;-65
2023/12/23 08:47:47;;;;;;;1999.90;999.90;;;;;;;9.46;100.00;100547.56;10455485;28;20479;-65
2023/12/23 08:52:51;;;;;;;1999.90;999.90;;;;;;;9.51;100.00;100546.44;10456545;28;20136;-65
2023/12/23 08:57:54;;;;;;;1999.90;999.90;;;;;;;9.61;100.00;100551.03;10456696;28;20061;-66
2023/12/23 09:02:56;;;;;;;1999.90;999.90;;;;;;;9.43;100.00;100557.31;10456454;28;20049;-65
2023/12/23 09:07:59;;;;;;;1999.90;999.90;;;;;;;9.49;100.00;100563.03;10456463;28;20083;-65
2023/12/23 09:13:03;;;;;;;1999.90;999.90;;;;;;;9.59;100.00;100573.81;10461842;28;20128;-65
2023/12/23 09:18:06;;;;;;;1999.90;999.90;;;;;;;9.57;100.00;100580.91;10462037;28;20540;-67
2023/12/23 09:23:08;;;;;;;1999.90;999.90;;;;;;;9.77;100.00;100563.25;10463101;28;20057;-67
2023/12/23 09:28:11;;;;;;;1999.90;999.90;;;;;;;9.76;100.00;100590.31;10463082;28;20496;-66
2023/12/23 09:33:13;;;;;;;1999.90;999.90;;;;;;;9.89;100.00;100566.94;10452924;28;20041;-66
2023/12/23 09:38:16;;;;;;;1999.90;999.90;;;;;;;9.78;100.00;100584.06;10463406;28;20049;-66
2023/12/23 09:43:19;;;;;;;1999.90;999.90;;;;;;;9.81;100.00;100594.34;10449273;28;20055;-66
2023/12/23 09:48:22;;;;;;;1999.90;999.90;;;;;;;9.65;100.00;100615.31;10461822;28;20051;-66
2023/12/23 09:53:27;;;;;;;1999.90;999.90;;;;;;;9.80;100.00;100603.13;10458991;28;20041;-67
2023/12/23 09:58:30;;;;;;;1999.90;999.90;;;;;;;9.87;100.00;100603.63;10453260;28;20076;-66
2023/12/23 10:03:32;;;;;;;1999.90;999.90;;;;;;;9.78;100.00;100597.13;10462246;28;20044;-67
2023/12/23 10:08:34;;;;;;;1999.90;999.90;;;;;;;9.92;100.00;100605.97;10463382;28;20103;-67
2023/12/23 10:13:37;;;;;;;1999.90;999.90;;;;;;;9.83;100.00;100605.59;10459538;28;20503;-66
2023/12/23 10:18:40;;;;;;;1999.90;999.90;;;;;;;9.92;100.00;100609.44;10460187;28;20053;-67
2023/12/23 10:23:43;;;;;;;1999.90;999.90;;;;;;;9.88;100.00;100612.31;10459281;28;20556;-66
2023/12/23 10:28:48;;;;;;;1999.90;999.90;;;;;;;9.80;100.00;100600.53;10460996;28;20057;-66
2023/12/23 10:33:55;;;;;;;1999.90;999.90;;;;;;;9.79;100.00;100606.69;10460653;28;20045;-66
2023/12/23 10:39:01;;;;;;;1999.90;999.90;;;;;;;9.77;100.00;100610.31;10460780;28;20048;-67
2023/12/23 10:44:05;;;;;;;1999.90;999.90;;;;;;;9.92;100.00;100608.56;10460138;28;20423;-66
2023/12/23 10:49:08;;;;;;;1999.90;999.90;;;;;;;9.88;100.00;100599.22;10461340;28;20052;-66
2023/12/23 10:54:11;;;;;;;1999.90;999.90;;;;;;;9.89;100.00;100619.25;10459514;28;20506;-66
2023/12/23 10:59:13;;;;;;;1999.90;999.90;;;;;;;9.94;100.00;100610.19;10460798;28;20049;-67
2023/12/23 11:04:16;;;;;;;1999.90;999.90;;;;;;;9.90;100.00;100619.16;10460415;28;20045;-67
2023/12/23 11:09:18;;;;;;;1999.90;999.90;;;;;;;10.00;100.00;100628.16;10460129;28;20260;-67
2023/12/23 11:14:21;;;;;;;1999.90;999.90;;;;;;;10.01;100.00;100621.13;10458828;28;20055;-66
2023/12/23 11:19:24;;;;;;;1999.90;999.90;;;;;;;10.07;100.00;100625.16;10458923;28;20053;-66
2023/12/23 11:24:33;;;;;;;1999.90;999.90;;;;;;;10.09;100.00;100605.84;10459822;28;20060;-67
2023/12/23 11:29:35;;;;;;;1999.90;999.90;;;;;;;10.07;100.00;100606.84;10458383;28;20049;-67
2023/12/23 11:34:41;;;;;;;1999.90;999.90;;;;;;;10.16;100.00;100615.00;10458680;28;20591;-66
2023/12/23 11:39:44;;;;;;;1999.90;999.90;;;;;;;10.09;100.00;100602.41;10472113;22;20394;-68
2023/12/23 11:44:47;;;;;;;1999.90;999.90;;;;;;;10.17;100.00;100610.59;10458925;28;20067;-68
2023/12/23 11:49:49;;;;;;;1999.90;999.90;;;;;;;10.26;100.00;100598.78;10458696;28;20048;-68
2023/12/23 11:54:52;;;;;;;1999.90;999.90;;;;;;;10.37;100.00;100583.28;10458783;28;20049;-68
2023/12/23 11:59:59;;;;;;;1999.90;999.90;;;;;;;10.34;100.00;100594.81;10458332;28;20045;-66
2023/12/23 12:05:01;;;;;;;1999.90;999.90;;;;;;;10.30;100.00;100611.56;10456960;28;20052;-66
2023/12/23 12:10:04;;;;;;;1999.90;999.90;;;;;;;10.28;100.00;100604.75;10456864;28;20041;-66
2023/12/23 12:15:07;;;;;;;1999.90;999.90;;;;;;;10.18;100.00;100612.31;10457683;28;20128;-66
2023/12/23 12:20:10;;;;;;;1999.90;999.90;;;;;;;10.15;100.00;100607.25;10457812;28;20049;-66
2023/12/23 12:25:13;;;;;;;1999.90;999.90;;;;;;;10.17;100.00;100616.69;10457415;28;20478;-66
2023/12/23 12:30:16;;;;;;;1999.90;999.90;;;;;;;10.17;100.00;100608.00;10456510;28;20084;-66
2023/12/23 12:35:18;;;;;;;1999.90;999.90;;;;;;;10.28;100.00;100607.38;10457033;28;20458;-65
2023/12/23 12:40:21;;;;;;;1999.90;999.90;;;;;;;10.16;100.00;100620.25;10457129;28;20073;-68
2023/12/23 12:45:26;;;;;;;1999.90;999.90;;;;;;;10.22;100.00;100625.13;10455715;28;20052;-68
2023/12/23 12:50:29;;;;;;;1999.90;999.90;;;;;;;10.17;100.00;100632.41;10456631;28;20045;-65
2023/12/23 12:55:31;;;;;;;1999.90;999.90;;;;;;;10.20;100.00;100611.28;10456920;28;20056;-66
2023/12/23 13:00:33;;;;;;;1999.90;999.90;;;;;;;10.23;100.00;100629.41;10456402;28;20048;-65
2023/12/23 13:05:36;;;;;;;1999.90;999.90;;;;;;;10.12;100.00;100623.13;10456604;28;20052;-66
2023/12/23 13:10:39;;;;;;;1999.90;999.90;;;;;;;10.28;100.00;100637.00;10455070;28;20045;-64
2023/12/23 13:15:44;;;;;;;1999.90;999.90;;;;;;;10.15;100.00;100665.63;10456097;28;20045;-64
2023/12/23 13:20:47;;;;;;;1999.90;999.90;;;;;;;10.15;100.00;100656.94;10454887;28;20149;-64
2023/12/23 13:25:50;;;;;;;1999.90;999.90;;;;;;;10.15;100.00;100659.56;10438700;28;20773;-64
2023/12/23 13:30:52;;;;;;;1999.90;999.90;;;;;;;10.27;100.00;100653.66;10438144;28;20476;-64
2023/12/23 13:35:54;;;;;;;1999.90;999.90;;;;;;;10.33;100.00;100671.63;10454565;28;20385;-64
2023/12/23 13:40:57;;;;;;;1999.90;999.90;;;;;;;10.14;100.00;100676.22;10455429;28;20064;-64
2023/12/23 13:46:00;;;;;;;1999.90;999.90;;;;;;;10.17;100.00;100670.78;10455611;28;20575;-66
2023/12/23 13:51:04;;;;;;;1999.90;999.90;;;;;;;10.17;100.00;100692.56;10454218;28;20467;-65
2023/12/23 13:56:08;;;;;;;1999.90;999.90;;;;;;;10.13;100.00;100684.97;10458422;28;20052;-65
2023/12/23 14:01:11;;;;;;;1999.90;999.90;;;;;;;10.14;100.00;100697.97;10463046;28;20087;-64
2023/12/23 14:06:13;;;;;;;1999.90;999.90;;;;;;;10.10;100.00;100704.28;10463026;28;20103;-64
2023/12/23 14:11:16;;;;;;;1999.90;999.90;;;;;;;10.05;100.00;100714.19;10463000;28;20488;-65
2023/12/23 14:16:18;;;;;;;1999.90;999.90;;;;;;;10.13;100.00;100714.59;10462317;28;20057;-64
2023/12/23 14:21:21;;;;;;;1999.90;999.90;;;;;;;10.11;100.00;100718.25;10462018;28;20488;-64
2023/12/23 14:26:23;;;;;;;1999.90;999.90;;;;;;;10.22;100.00;100706.25;10462017;28;20123;-64
2023/12/23 14:31:27;;;;;;;1999.90;999.90;;;;;;;10.08;100.00;100694.88;10461603;28;20052;-64
2023/12/23 14:36:32;;;;;;;1999.90;999.90;;;;;;;10.12;100.00;100712.06;10461612;28;20128;-64
2023/12/23 14:41:34;;;;;;;1999.90;999.90;;;;;;;10.09;100.00;100722.72;10460230;28;20511;-64
2023/12/23 14:46:37;;;;;;;1999.90;999.90;;;;;;;9.92;100.00;100737.59;10459977;28;20498;-64
2023/12/23 14:51:39;;;;;;;1999.90;999.90;;;;;;;10.13;100.00;100735.53;10459811;28;20124;-64
2023/12/23 14:56:42;;;;;;;1999.90;999.90;;;;;;;10.05;100.00;100729.88;10460997;28;20101;-65
2023/12/23 15:01:44;;;;;;;1999.90;999.90;;;;;;;10.04;100.00;100747.34;10460741;28;20049;-64
2023/12/23 15:06:48;;;;;;;1999.90;999.90;;;;;;;10.03;100.00;100750.06;10458364;28;20202;-64
2023/12/23 15:11:51;;;;;;;1999.90;999.90;;;;;;;9.91;100.00;100769.88;10458943;28;20403;-64
2023/12/23 15:16:57;;;;;;;1999.90;999.90;;;;;;;10.01;100.00;100757.97;10458908;28;20049;-64
2023/12/23 15:22:00;;;;;;;1999.90;999.90;;;;;;;10.00;100.00;100756.31;10460006;28;20044;-64
2023/12/23 15:27:03;;;;;;;1999.90;999.90;;;;;;;10.00;100.00;100761.53;10459537;28;20048;-64
2023/12/23 15:32:05;;;;;;;1999.90;999.90;;;;;;;9.99;100.00;100759.84;10459834;28;20045;-64
2023/12/23 15:37:09;;;;;;;1999.90;999.90;;;;;;;9.98;100.00;100763.38;10459286;28;20053;-64
2023/12/23 15:42:12;;;;;;;1999.90;999.90;;;;;;;9.93;100.00;100770.63;10459033;28;20095;-64
2023/12/23 15:47:14;;;;;;;1999.90;999.90;;;;;;;9.92;100.00;100773.34;10457840;28;20087;-65
2023/12/23 15:52:16;;;;;;;1999.90;999.90;;;;;;;9.98;100.00;100775.63;10457309;28;20099;-64
2023/12/23 15:57:19;;;;;;;1999.90;999.90;;;;;;;9.95;100.00;100768.81;10458527;28;20057;-64
2023/12/23 16:02:22;;;;;;;1999.90;999.90;;;;;;;9.92;100.00;100770.72;10458079;28;20056;-64
2023/12/23 16:07:24;;;;;;;1999.90;999.90;;;;;;;9.89;100.00;100781.38;10458228;28;20053;-64
2023/12/23 16:12:26;;;;;;;1999.90;999.90;;;;;;;9.91;100.00;100775.13;10456712;28;20051;-64
2023/12/23 16:17:29;;;;;;;1999.90;999.90;;;;;;;10.02;100.00;100780.59;10456320;28;20071;-64
2023/12/23 16:22:31;;;;;;;1999.90;999.90;;;;;;;9.96;100.00;100785.34;10457500;28;20049;-67
2023/12/23 16:27:34;;;;;;;1999.90;999.90;;;;;;;10.01;100.00;100776.28;10457327;28;20131;-64
2023/12/23 16:32:37;;;;;;;1999.90;999.90;;;;;;;9.91;100.00;100782.97;10455909;28;20479;-64
2023/12/23 16:37:41;;;;;;;1999.90;999.90;;;;;;;9.99;100.00;100788.63;10456695;28;20056;-64
2023/12/23 16:42:43;;;;;;;1999.90;999.90;;;;;;;9.97;100.00;100777.41;10456787;28;20142;-67
2023/12/23 16:47:46;;;;;;;1999.90;999.90;;;;;;;10.06;100.00;100778.66;10456906;28;20059;-65
2023/12/23 16:52:48;;;;;;;1999.90;999.90;;;;;;;9.86;100.00;100777.97;10456956;28;20052;-64
2023/12/23 16:57:51;;;;;;;1999.90;999.90;;;;;;;9.85;100.00;100778.06;10455445;28;20048;-64
2023/12/23 17:02:53;;;;;;;1999.90;999.90;;;;;;;9.88;100.00;100784.91;10456212;28;20055;-64
2023/12/23 17:07:56;;;;;;;1999.90;999.90;;;;;;;9.92;100.00;100778.56;10455259;28;20048;-64
2023/12/23 17:12:58;;;;;;;1999.90;999.90;;;;;;;9.86;100.00;100767.50;10455945;28;20447;-65
2023/12/23 17:18:03;;;;;;;1999.90;999.90;;;;;;;9.95;100.00;100774.03;10456059;28;20399;-64
2023/12/23 17:23:07;;;;;;;1999.90;999.90;;;;;;;10.06;100.00;100773.44;10456286;28;20045;-64
2023/12/23 17:28:09;;;;;;;1999.90;999.90;;;;;;;9.93;100.00;100772.41;10455888;28;20131;-64
2023/12/23 17:33:15;;;;;;;1999.90;999.90;;;;;;;9.97;100.00;100793.09;10461328;28;20124;-64
2023/12/23 17:38:18;;;;;;;1999.90;999.90;;;;;;;9.92;100.00;100784.66;10463808;28;20084;-64
2023/12/23 17:43:20;;;;;;;1999.90;999.90;;;;;;;10.04;100.00;100770.06;10464354;28;20099;-64
2023/12/23 17:48:22;;;;;;;1999.90;999.90;;;;;;;9.80;100.00;100780.94;10463842;28;20396;-64
2023/12/23 17:53:25;;;;;;;1999.90;999.90;;;;;;;9.81;100.00;100776.56;10461948;28;20080;-64
2023/12/23 17:58:27;;;;;;;1999.90;999.90;;;;;;;9.78;100.00;100785.38;10463383;28;20056;-64
2023/12/23 18:03:30;;;;;;;1999.90;999.90;;;;;;;9.92;100.00;100787.28;10462785;28;20057;-64
2023/12/23 18:08:32;;;;;;;1999.90;999.90;;;;;;;9.84;100.00;100789.47;10462813;28;20049;-64
2023/12/23 18:13:35;;;;;;;1999.90;999.90;;;;;;;9.81;100.00;100779.16;10462367;28;20147;-65
2023/12/23 18:18:37;;;;;;;1999.90;999.90;;;;;;;9.83;100.00;100780.78;10462465;28;20128;-64
2023/12/23 18:23:40;;;;;;;1999.90;999.90;;;;;;;10.09;100.00;100773.25;10461487;28;20128;-64
2023/12/23 18:28:42;;;;;;;1999.90;999.90;;;;;;;10.16;100.00;100771.97;10461881;28;20045;-64
2023/12/23 18:33:44;;;;;;;1999.90;999.90;;;;;;;10.19;100.00;100784.91;10461848;28;20081;-64
2023/12/23 18:38:47;;;;;;;1999.90;999.90;;;;;;;10.18;100.00;100769.28;10461625;28;20110;-64
2023/12/23 18:43:49;;;;;;;1999.90;999.90;;;;;;;10.30;100.00;100776.44;10461858;28;20120;-64
2023/12/23 18:48:52;;;;;;;1999.90;999.90;;;;;;;10.13;100.00;100789.63;10461185;28;20048;-64
2023/12/23 18:53:55;;;;;;;1999.90;999.90;;;;;;;10.23;100.00;100782.94;10460644;28;20098;-64
2023/12/23 18:58:57;;;;;;;1999.90;999.90;;;;;;;10.29;100.00;100780.00;10461136;28;20049;-64
2023/12/23 19:04:00;;;;;;;1999.90;999.90;;;;;;;10.17;100.00;100781.53;10459497;28;20051;-65
2023/12/23 19:09:03;;;;;;;1999.90;999.90;;;;;;;10.19;100.00;100795.38;10459365;28;20048;-64
2023/12/23 19:14:06;;;;;;;1999.90;999.90;;;;;;;10.13;100.00;100814.00;10460253;28;20045;-64
2023/12/23 19:19:08;;;;;;;1999.90;999.90;;;;;;;10.07;100.00;100782.09;10460543;28;20060;-65
2023/12/23 19:24:13;;;;;;;1999.90;999.90;;;;;;;10.11;100.00;100776.63;10459818;28;20385;-64
2023/12/23 19:29:15;;;;;;;1999.90;999.90;;;;;;;10.23;100.00;100788.19;10458469;28;20059;-64
2023/12/23 19:34:19;;;;;;;1999.90;999.90;;;;;;;10.11;100.00;100781.03;10459511;28;20045;-64
2023/12/23 19:39:22;;;;;;;1999.90;999.90;;;;;;;10.20;100.00;100783.97;10459266;28;20492;-64
2023/12/23 19:44:26;;;;;;;1999.90;999.90;;;;;;;10.09;100.00;100785.50;10459838;28;20087;-64
2023/12/23 19:49:28;;;;;;;1999.90;999.90;;;;;;;10.26;100.00;100780.16;10459219;28;20057;-64
2023/12/23 19:54:31;;;;;;;1999.90;999.90;;;;;;;10.32;100.00;100781.63;10458454;28;20127;-65
2023/12/23 19:59:33;;;;;;;1999.90;999.90;;;;;;;10.25;100.00;100768.00;10458585;28;20045;-64
2023/12/23 20:04:36;;;;;;;1999.90;999.90;;;;;;;10.21;100.00;100775.19;10457091;28;20098;-64
2023/12/23 20:09:39;;;;;;;1999.90;999.90;;;;;;;10.20;100.00;100770.91;10457748;28;20057;-64
2023/12/23 20:14:41;;;;;;;1999.90;999.90;;;;;;;10.32;100.00;100782.47;10457860;28;20049;-64
2023/12/23 20:19:43;;;;;;;1999.90;999.90;;;;;;;10.30;100.00;100773.81;10458312;28;20055;-64
2023/12/23 20:24:46;;;;;;;1999.90;999.90;;;;;;;10.14;100.00;100773.00;10457418;28;20507;-64
2023/12/23 20:29:48;;;;;;;1999.90;999.90;;;;;;;10.15;100.00;100762.44;10457579;28;20057;-64
2023/12/23 20:34:50;;;;;;;1999.90;999.90;;;;;;;10.28;100.00;100780.09;10457495;28;20399;-64
2023/12/23 20:39:53;;;;;;;1999.90;999.90;;;;;;;10.27;100.00;100773.16;10456852;28;20404;-64
2023/12/23 20:44:55;;;;;;;1999.90;999.90;;;;;;;10.26;100.00;100774.94;10440000;28;20045;-64
2023/12/23 20:49:58;;;;;;;1999.90;999.90;;;;;;;10.17;100.00;100770.19;10455607;28;20045;-65
2023/12/23 20:55:00;;;;;;;1999.90;999.90;;;;;;;10.09;100.00;100765.41;10455357;28;20052;-64
2023/12/23 21:00:04;;;;;;;1999.90;999.90;;;;;;;10.01;100.00;100773.69;10455297;28;20060;-64
2023/12/23 21:05:09;;;;;;;1999.90;999.90;;;;;;;10.04;100.00;100759.59;10455387;28;20124;-64
2023/12/23 21:10:14;;;;;;;1999.90;999.90;;;;;;;9.92;100.00;100760.25;10456460;28;20077;-64
2023/12/23 21:15:16;;;;;;;1999.90;999.90;;;;;;;9.97;100.00;100789.63;10456037;28;20083;-64
2023/12/23 21:20:18;;;;;;;1999.90;999.90;;;;;;;10.10;100.00;100768.88;10456337;28;20053;-64
2023/12/23 21:25:21;;;;;;;1999.90;999.90;;;;;;;9.99;100.00;100767.69;10456066;28;20049;-64
2023/12/23 21:30:24;;;;;;;1999.90;999.90;;;;;;;9.93;100.00;100764.56;10456164;28;20049;-64
2023/12/23 21:35:27;;;;;;;1999.90;999.90;;;;;;;9.94;100.00;100754.03;10455869;28;20056;-64
2023/12/23 21:40:29;;;;;;;1999.90;999.90;;;;;;;9.96;100.00;100740.88;10456086;28;20060;-64
2023/12/23 21:45:32;;;;;;;1999.90;999.90;;;;;;;9.99;100.00;100748.56;10455764;28;20052;-64
2023/12/23 21:50:34;;;;;;;1999.90;999.90;;;;;;;9.90;100.00;100747.28;10456041;28;20059;-64